Time;durP1;ratioP1;P1;durP2;ratioP2;P2;SDS_P1;SDS_P2;PMS_P1;PMS_P2;Temp;Humidity;BMP_temperature;BMP_pressure;BME280_temperature;BME280_humidity;BME280_pressure;Samples;Min_cycle;Max_cycle;Signal;HPM_P1;HPM_P2
2022/07/26 00:01:17;;;;;;;4.93;3.60;;;26.20;59.00;;;;;;4988774;28;20423;-68
2022/07/26 00:03:43;;;;;;;5.90;3.77;;;26.30;60.50;;;;;;4987411;28;20463;-67
2022/07/26 00:06:09;;;;;;;4.80;3.93;;;26.30;59.80;;;;;;4988614;28;20447;-67
2022/07/26 00:08:34;;;;;;;8.90;3.47;;;26.30;60.10;;;;;;4987565;28;20181;-67
2022/07/26 00:11:00;;;;;;;4.93;3.30;;;26.30;58.80;;;;;;4988813;28;20188;-67
2022/07/26 00:13:26;;;;;;;4.67;3.20;;;26.40;58.60;;;;;;4988199;28;20672;-67
2022/07/26 00:15:52;;;;;;;3.57;3.27;;;26.30;58.70;;;;;;4988797;28;20526;-67
2022/07/26 00:18:18;;;;;;;8.03;3.63;;;26.30;58.70;;;;;;4986785;28;20165;-67
2022/07/26 00:20:45;;;;;;;4.30;3.30;;;26.20;59.30;;;;;;4988767;28;20503;-67
2022/07/26 00:23:11;;;;;;;3.90;3.23;;;26.20;58.40;;;;;;5000032;28;20807;-67
2022/07/26 00:25:37;;;;;;;4.23;3.23;;;26.20;58.20;;;;;;5008421;28;20433;-66
2022/07/26 00:28:03;;;;;;;4.77;3.33;;;26.10;57.70;;;;;;5007564;28;20203;-67
2022/07/26 00:30:29;;;;;;;5.67;3.00;;;26.10;57.00;;;;;;5008225;28;20178;-68
2022/07/26 00:32:55;;;;;;;3.90;2.93;;;26.10;56.70;;;;;;4990315;28;20439;-66
2022/07/26 00:35:21;;;;;;;3.87;3.17;;;26.10;57.50;;;;;;4988640;28;20207;-66
2022/07/26 00:37:47;;;;;;;8.40;3.57;;;26.10;57.90;;;;;;4991805;28;20411;-67
2022/07/26 00:40:13;;;;;;;4.60;3.40;;;26.00;58.20;;;;;;4994292;28;20586;-67
2022/07/26 00:42:39;;;;;;;7.40;3.30;;;26.00;57.40;;;;;;4988325;28;20184;-67
2022/07/26 00:45:07;;;;;;;3.87;3.00;;;25.90;58.50;;;;;;4988593;28;20419;-67
2022/07/26 00:47:33;;;;;;;3.63;3.00;;;25.90;58.00;;;;;;4987283;28;20431;-67
2022/07/26 00:49:59;;;;;;;7.57;3.30;;;25.90;58.30;;;;;;4987566;28;20826;-67
2022/07/26 00:52:25;;;;;;;3.30;2.60;;;25.90;58.40;;;;;;4976859;28;20259;-67
2022/07/26 00:54:53;;;;;;;4.30;2.93;;;25.90;59.20;;;;;;4972187;28;20208;-66
2022/07/26 00:57:20;;;;;;;2.80;2.47;;;25.80;59.50;;;;;;4972546;28;20893;-66
2022/07/26 00:59:47;;;;;;;5.30;2.47;;;25.80;59.10;;;;;;4972619;28;20517;-67
2022/07/26 01:02:14;;;;;;;4.33;2.70;;;25.80;59.20;;;;;;4976537;28;20427;-67
2022/07/26 01:04:43;;;;;;;4.90;2.87;;;25.80;59.60;;;;;;4991444;28;20423;-67
2022/07/26 01:07:09;;;;;;;5.47;2.77;;;25.80;60.10;;;;;;4992103;28;20818;-67
2022/07/26 01:09:36;;;;;;;3.60;2.83;;;25.80;60.70;;;;;;4991725;28;20936;-66
2022/07/26 01:12:01;;;;;;;8.20;3.07;;;25.70;60.00;;;;;;4992028;28;20411;-67
2022/07/26 01:14:27;;;;;;;2.83;2.50;;;25.70;60.90;;;;;;4992375;28;20461;-67
2022/07/26 01:16:53;;;;;;;3.50;2.67;;;25.70;61.70;;;;;;4992282;28;20327;-67
2022/07/26 01:19:19;;;;;;;3.63;2.50;;;25.80;61.70;;;;;;4990379;28;20167;-67
2022/07/26 01:21:45;;;;;;;7.07;2.80;;;25.80;61.60;;;;;;4992667;28;21011;-67
2022/07/26 01:24:11;;;;;;;3.30;2.57;;;25.70;62.10;;;;;;5011185;28;20510;-67
2022/07/26 01:26:37;;;;;;;4.43;3.10;;;25.70;62.70;;;;;;5011715;28;20191;-67
2022/07/26 01:29:03;;;;;;;5.07;3.23;;;25.70;63.50;;;;;;5010191;28;20183;-67
2022/07/26 01:31:29;;;;;;;8.77;2.90;;;25.70;63.70;;;;;;5006346;28;20183;-67
2022/07/26 01:33:55;;;;;;;3.90;2.40;;;25.80;63.90;;;;;;4990123;28;20450;-67
2022/07/26 01:36:20;;;;;;;4.70;3.00;;;25.70;64.30;;;;;;4991503;28;20231;-66
2022/07/26 01:38:46;;;;;;;5.13;2.57;;;25.60;65.40;;;;;;4990723;28;20168;-67
2022/07/26 01:41:12;;;;;;;6.40;2.50;;;25.60;65.10;;;;;;4991543;28;20570;-67
2022/07/26 01:43:38;;;;;;;3.30;2.30;;;25.60;65.50;;;;;;4991145;28;20213;-67
2022/07/26 01:46:06;;;;;;;4.10;2.67;;;25.60;66.00;;;;;;4991952;28;20215;-67
2022/07/26 01:48:32;;;;;;;3.00;2.40;;;25.60;66.30;;;;;;4989756;28;20234;-69
2022/07/26 01:50:57;;;;;;;2.67;2.17;;;25.50;66.90;;;;;;4992062;28;20404;-70
2022/07/26 01:53:23;;;;;;;2.63;2.20;;;25.50;68.10;;;;;;4990126;28;20192;-66
2022/07/26 01:55:49;;;;;;;3.80;2.43;;;25.40;67.80;;;;;;4991384;28;20212;-67
2022/07/26 01:58:15;;;;;;;4.37;2.77;;;25.40;68.50;;;;;;4990283;28;20536;-66
2022/07/26 02:00:41;;;;;;;5.70;2.70;;;25.30;69.80;;;;;;4991305;28;20196;-66
2022/07/26 02:03:06;;;;;;;3.97;2.20;;;25.30;69.70;;;;;;4989665;28;20447;-67
2022/07/26 02:05:32;;;;;;;5.53;2.37;;;25.30;70.60;;;;;;4990138;28;20181;-67
2022/07/26 02:07:58;;;;;;;3.90;2.07;;;25.40;72.00;;;;;;4990414;28;20181;-66
2022/07/26 02:10:59;;;;;;;2.97;2.10;;;25.40;71.70;;;;;;4990509;28;20184;-67
2022/07/26 02:13:09;;;;;;;4.53;2.50;;;25.40;72.00;;;;;;4989877;28;20220;-66
2022/07/26 02:15:35;;;;;;;4.13;2.20;;;25.30;73.20;;;;;;4990694;28;20474;-67
2022/07/26 02:18:00;;;;;;;6.77;2.17;;;25.30;72.90;;;;;;4988774;28;20199;-66
2022/07/26 02:20:26;;;;;;;3.20;1.90;;;25.30;73.80;;;;;;4990171;28;20660;-66
2022/07/26 02:22:52;;;;;;;3.97;2.10;;;25.30;74.60;;;;;;4999388;28;20219;-67
2022/07/26 02:25:18;;;;;;;3.83;1.97;;;25.30;75.80;;;;;;5010242;28;20176;-67
2022/07/26 02:27:43;;;;;;;3.10;2.50;;;25.30;79.20;;;;;;5009816;28;20228;-67
2022/07/26 02:30:10;;;;;;;2.90;2.00;;;25.30;77.10;;;;;;5009847;28;20226;-67
2022/07/26 02:32:35;;;;;;;4.13;1.97;;;25.20;76.40;;;;;;4995439;28;20188;-66
2022/07/26 02:35:01;;;;;;;3.60;2.67;;;25.20;76.90;;;;;;4988685;28;20498;-67
2022/07/26 02:37:27;;;;;;;6.27;2.97;;;25.20;77.80;;;;;;4990001;28;20476;-66
2022/07/26 02:39:52;;;;;;;4.20;2.40;;;25.20;78.30;;;;;;4989851;28;20169;-67
2022/07/26 02:42:18;;;;;;;3.07;2.13;;;25.20;78.90;;;;;;4989927;28;20592;-67
2022/07/26 02:44:44;;;;;;;5.93;2.60;;;25.30;79.30;;;;;;4989632;28;20288;-66
2022/07/26 02:47:09;;;;;;;3.83;2.07;;;25.20;79.70;;;;;;4989538;28;20230;-66
2022/07/26 02:49:35;;;;;;;6.43;2.30;;;25.20;80.50;;;;;;4988034;28;20522;-67
2022/07/26 02:52:01;;;;;;;4.33;2.37;;;25.20;80.50;;;;;;4990089;28;20398;-67
2022/07/26 02:54:27;;;;;;;7.10;2.70;;;25.20;81.20;;;;;;4989430;28;20179;-66
2022/07/26 02:56:52;;;;;;;5.80;2.70;;;25.20;81.00;;;;;;4989265;28;20680;-66
2022/07/26 02:59:18;;;;;;;4.47;2.90;;;25.30;82.50;;;;;;4987939;28;20173;-69
2022/07/26 03:01:44;;;;;;;25.20;4.37;;;25.30;82.70;;;;;;4988606;28;20226;-66
2022/07/26 03:04:09;;;;;;;9.97;2.73;;;25.30;82.10;;;;;;4987957;28;20205;-67
2022/07/26 03:06:35;;;;;;;9.60;2.80;;;25.20;81.90;;;;;;4990190;28;20566;-66
2022/07/26 03:09:01;;;;;;;11.47;3.20;;;25.20;82.70;;;;;;4989061;28;20187;-65
2022/07/26 03:11:27;;;;;;;13.43;3.63;;;25.20;83.10;;;;;;4990327;28;20191;-66
2022/07/26 03:13:52;;;;;;;13.90;3.73;;;25.20;83.60;;;;;;4989598;28;20239;-66
2022/07/26 03:16:18;;;;;;;12.73;3.07;;;25.10;83.80;;;;;;4989422;28;20211;-67
2022/07/26 03:18:44;;;;;;;6.20;2.43;;;25.10;84.10;;;;;;4987905;28;20169;-67
2022/07/26 03:21:10;;;;;;;4.33;2.80;;;25.10;84.90;;;;;;4989891;28;20161;-67
2022/07/26 03:23:36;;;;;;;10.00;3.20;;;25.10;85.40;;;;;;5004414;28;20431;-67
2022/07/26 03:26:02;;;;;;;38.10;5.53;;;25.00;86.50;;;;;;5009519;28;20168;-68
2022/07/26 03:28:32;;;;;;;5.37;2.43;;;25.10;87.40;;;;;;5008474;28;20219;-66
2022/07/26 03:30:58;;;;;;;17.07;3.47;;;25.10;88.10;;;;;;5008683;28;20490;-65
2022/07/26 03:33:24;;;;;;;6.00;2.57;;;25.10;88.90;;;;;;4987770;28;20531;-67
2022/07/26 03:35:49;;;;;;;11.23;3.37;;;25.00;89.00;;;;;;4989580;28;20538;-67
2022/07/26 03:38:15;;;;;;;7.20;2.83;;;25.00;89.60;;;;;;4988755;28;20500;-67
2022/07/26 03:40:41;;;;;;;10.80;3.10;;;25.00;90.00;;;;;;4989247;28;20620;-67
2022/07/26 03:43:07;;;;;;;7.63;3.10;;;24.90;90.70;;;;;;4990323;28;20185;-69
2022/07/26 03:45:32;;;;;;;15.40;3.43;;;24.80;91.00;;;;;;4990054;28;20180;-66
2022/07/26 03:47:58;;;;;;;21.67;3.83;;;24.80;91.60;;;;;;4988557;28;20257;-67
2022/07/26 03:50:24;;;;;;;2.77;2.30;;;24.80;92.20;;;;;;4989697;28;20185;-67
2022/07/26 03:52:49;;;;;;;5.10;2.50;;;24.90;93.70;;;;;;4989785;28;20700;-67
2022/07/26 03:58:00;;;;;;;11.30;3.13;;;24.60;93.90;;;;;;4987488;28;20203;-68
2022/07/26 04:00:26;;;;;;;5.87;2.90;;;24.60;94.60;;;;;;4988375;28;20850;-67
2022/07/26 04:02:51;;;;;;;4.00;2.83;;;24.50;95.40;;;;;;4987027;28;20283;-68
2022/07/26 04:05:17;;;;;;;8.13;2.77;;;24.50;96.10;;;;;;4988458;28;20514;-67
2022/07/26 04:07:44;;;;;;;5.63;2.60;;;24.40;96.70;;;;;;4988052;28;20715;-67
2022/07/26 04:10:11;;;;;;;3.60;2.50;;;24.40;97.70;;;;;;4985076;28;20238;-66
2022/07/26 04:12:38;;;;;;;4.63;2.40;;;24.50;98.30;;;;;;4986795;28;20486;-66
2022/07/26 04:15:05;;;;;;;3.30;1.90;;;24.50;99.20;;;;;;4992409;28;20462;-66
2022/07/26 04:17:40;;;;;;;9.53;2.43;;;24.40;99.30;;;;;;4990697;28;20416;-68
2022/07/26 04:20:09;;;;;;;11.47;3.20;;;24.30;99.90;;;;;;4985672;28;20564;-70
2022/07/26 04:22:35;;;;;;;8.50;2.50;;;24.20;99.90;;;;;;4990580;28;20478;-67
2022/07/26 04:25:02;;;;;;;3.50;1.90;;;24.20;99.90;;;;;;4990555;28;20427;-69
2022/07/26 04:27:28;;;;;;;12.47;3.40;;;24.30;99.90;;;;;;4993348;28;20415;-67
2022/07/26 04:29:54;;;;;;;16.57;3.50;;;24.30;99.90;;;;;;5010151;28;20414;-68
2022/07/26 04:32:19;;;;;;;8.90;2.80;;;24.20;99.90;;;;;;4994287;28;20220;-66
2022/07/26 04:34:45;;;;;;;5.27;2.47;;;24.30;99.90;;;;;;4996293;28;20189;-68
2022/07/26 04:37:11;;;;;;;9.37;3.30;;;24.40;99.90;;;;;;4997247;28;20179;-69
2022/07/26 04:39:36;;;;;;;6.33;2.03;;;24.40;99.90;;;;;;4996810;28;20204;-66
2022/07/26 04:42:02;;;;;;;13.43;5.07;;;24.50;99.90;;;;;;4997330;28;20180;-66
2022/07/26 04:44:28;;;;;;;5.03;2.60;;;24.50;99.90;;;;;;4996532;28;20176;-67
2022/07/26 04:46:54;;;;;;;10.77;3.07;;;24.50;99.90;;;;;;4995972;28;20196;-67
2022/07/26 04:49:19;;;;;;;8.77;2.70;;;24.50;99.90;;;;;;4990488;28;20619;-67
2022/07/26 04:51:45;;;;;;;11.57;2.73;;;24.30;99.90;;;;;;4987749;28;20182;-68
2022/07/26 04:54:11;;;;;;;10.07;3.07;;;24.30;99.90;;;;;;4974038;28;20193;-67
2022/07/26 04:56:36;;;;;;;24.03;4.37;;;24.20;99.90;;;;;;4974203;28;20209;-67
2022/07/26 04:59:02;;;;;;;17.87;3.30;;;24.20;99.90;;;;;;4973092;28;20181;-65
2022/07/26 05:01:28;;;;;;;37.03;4.53;;;24.20;99.90;;;;;;4977655;28;20275;-67
2022/07/26 05:03:53;;;;;;;20.30;2.60;;;24.40;99.90;;;;;;4991913;28;20301;-67
2022/07/26 05:06:19;;;;;;;20.57;3.90;;;24.30;99.90;;;;;;4992886;28;20173;-68
2022/07/26 05:08:45;;;;;;;13.77;3.10;;;24.40;99.90;;;;;;4991626;28;20850;-67
2022/07/26 05:11:11;;;;;;;13.23;3.90;;;24.50;99.90;;;;;;4992552;28;20180;-68
2022/07/26 05:13:36;;;;;;;34.27;5.10;;;24.50;99.90;;;;;;4992203;28;20604;-67
2022/07/26 05:16:02;;;;;;;12.90;2.70;;;24.50;99.90;;;;;;4985013;28;20291;-68
2022/07/26 05:18:29;;;;;;;25.43;4.07;;;24.50;99.90;;;;;;4990781;28;20255;-69
2022/07/26 05:20:54;;;;;;;4.60;2.73;;;24.40;99.90;;;;;;4991123;28;20838;-68
2022/07/26 05:23:20;;;;;;;12.60;3.23;;;24.30;99.90;;;;;;5000975;28;20435;-68
2022/07/26 05:25:46;;;;;;;14.43;3.40;;;24.40;99.90;;;;;;4990478;28;20239;-68
2022/07/26 05:28:12;;;;;;;7.97;2.80;;;24.50;99.90;;;;;;4981756;28;20901;-68
2022/07/26 05:30:38;;;;;;;3.70;2.03;;;24.50;99.90;;;;;;4991238;28;20511;-67
2022/07/26 05:33:04;;;;;;;9.93;3.40;;;24.40;99.90;;;;;;4989705;28;20232;-66
2022/07/26 05:35:29;;;;;;;4.33;2.43;;;24.30;99.90;;;;;;4989983;28;20204;-67
2022/07/26 05:37:55;;;;;;;3.83;2.10;;;24.40;99.90;;;;;;4990443;28;20183;-68
2022/07/26 05:40:21;;;;;;;3.80;2.37;;;24.50;99.90;;;;;;4990111;28;20254;-68
2022/07/26 05:42:47;;;;;;;3.30;2.20;;;24.40;99.90;;;;;;4990724;28;20243;-68
2022/07/26 05:45:13;;;;;;;10.10;2.87;;;24.40;99.90;;;;;;4977634;28;20232;-67
2022/07/26 05:47:39;;;;;;;5.57;2.27;;;24.30;99.90;;;;;;4970565;28;20409;-68
2022/07/26 05:50:05;;;;;;;11.33;3.87;;;24.40;99.90;;;;;;4988435;28;20196;-69
2022/07/26 05:52:31;;;;;;;17.67;3.10;;;24.50;99.90;;;;;;4983928;28;21025;-67
2022/07/26 05:54:57;;;;;;;13.23;2.70;;;24.40;99.90;;;;;;4990585;28;20528;-68
2022/07/26 05:57:23;;;;;;;20.67;3.93;;;24.40;99.90;;;;;;4991091;28;20461;-68
2022/07/26 05:59:49;;;;;;;7.80;2.57;;;24.50;99.90;;;;;;4991154;28;21227;-68
2022/07/26 06:02:15;;;;;;;21.80;3.93;;;24.60;99.90;;;;;;4990884;28;20440;-67
2022/07/26 06:04:41;;;;;;;10.93;2.80;;;24.50;99.90;;;;;;4990590;28;20172;-67
2022/07/26 06:07:06;;;;;;;4.43;1.90;;;24.60;99.90;;;;;;4990609;28;20196;-68
2022/07/26 06:09:32;;;;;;;15.53;3.43;;;24.60;99.90;;;;;;4990371;28;20562;-68
2022/07/26 06:11:58;;;;;;;15.93;3.70;;;24.80;99.90;;;;;;4991346;28;20528;-66
2022/07/26 06:14:24;;;;;;;17.20;3.53;;;25.00;99.90;;;;;;4990253;28;20180;-69
2022/07/26 06:16:50;;;;;;;10.93;4.13;;;25.30;99.90;;;;;;4989472;28;20263;-68
2022/07/26 06:19:16;;;;;;;12.60;3.00;;;25.80;99.90;;;;;;4988397;28;20248;-70
2022/07/26 06:21:44;;;;;;;6.23;2.70;;;25.90;99.90;;;;;;4990721;28;20264;-69
2022/07/26 06:24:10;;;;;;;11.10;2.90;;;26.10;99.90;;;;;;4971295;28;20224;-68
2022/07/26 06:26:35;;;;;;;7.60;2.37;;;26.00;99.90;;;;;;4971705;28;20444;-67
2022/07/26 06:29:01;;;;;;;9.13;2.70;;;25.60;99.90;;;;;;4969904;28;20280;-68
2022/07/26 06:31:27;;;;;;;8.33;2.30;;;25.50;99.90;;;;;;4975458;28;20223;-68
2022/07/26 06:33:53;;;;;;;19.20;3.67;;;25.30;99.90;;;;;;4989399;28;20713;-67
2022/07/26 06:36:19;;;;;;;15.20;4.63;;;25.30;99.90;;;;;;4990407;28;20550;-68
2022/07/26 06:38:44;;;;;;;20.87;5.57;;;25.30;99.90;;;;;;4989222;28;20164;-68
2022/07/26 06:41:10;;;;;;;27.23;3.83;;;25.50;99.90;;;;;;4990514;28;20165;-68
2022/07/26 06:43:35;;;;;;;5.63;2.67;;;25.70;99.90;;;;;;4990025;28;20875;-68
2022/07/26 06:46:01;;;;;;;5.47;2.40;;;25.90;99.90;;;;;;4989982;28;20180;-68
2022/07/26 06:48:27;;;;;;;11.13;3.00;;;26.00;99.90;;;;;;4987762;28;20188;-68
2022/07/26 06:50:53;;;;;;;5.37;2.70;;;25.70;99.90;;;;;;4990263;28;20191;-68
2022/07/26 06:53:19;;;;;;;4.43;2.50;;;25.60;99.90;;;;;;4970887;28;20706;-67
2022/07/26 06:55:44;;;;;;;4.67;2.03;;;25.60;99.90;;;;;;4970195;28;20251;-68
2022/07/26 06:58:10;;;;;;;4.53;2.73;;;25.40;99.90;;;;;;4969388;28;20184;-67
2022/07/26 07:00:36;;;;;;;2.40;2.00;;;25.50;99.90;;;;;;4970081;28;20174;-67
2022/07/26 07:03:01;;;;;;;4.00;1.90;;;25.60;99.90;;;;;;4977770;28;20185;-69
2022/07/26 07:05:27;;;;;;;25.27;4.10;;;25.50;99.90;;;;;;4970544;28;20173;-69
2022/07/26 07:07:53;;;;;;;9.30;3.37;;;25.50;99.90;;;;;;4970295;28;20173;-68
2022/07/26 07:10:18;;;;;;;12.93;2.97;;;25.70;99.90;;;;;;4977788;28;20187;-68
2022/07/26 07:12:44;;;;;;;13.53;3.27;;;25.90;99.90;;;;;;4989664;28;20212;-67
2022/07/26 07:15:11;;;;;;;13.73;3.63;;;26.20;99.90;;;;;;4990084;28;20560;-69
2022/07/26 07:17:37;;;;;;;14.60;2.77;;;26.50;99.90;;;;;;5004990;28;20168;-68
2022/07/26 07:20:04;;;;;;;10.20;3.17;;;26.60;99.90;;;;;;4991000;28;20454;-70
2022/07/26 07:22:30;;;;;;;10.67;2.83;;;26.50;99.90;;;;;;4997603;28;20488;-68
2022/07/26 07:24:57;;;;;;;6.63;2.60;;;26.30;99.90;;;;;;5010475;28;20395;-67
2022/07/26 07:27:23;;;;;;;9.33;2.93;;;26.30;99.90;;;;;;5007532;28;20513;-67
2022/07/26 07:29:49;;;;;;;16.83;3.20;;;26.80;99.90;;;;;;5008673;28;20403;-67
2022/07/26 07:32:15;;;;;;;7.53;3.27;;;27.00;99.90;;;;;;4997496;28;20521;-67
2022/07/26 07:34:40;;;;;;;11.10;2.63;;;26.80;99.70;;;;;;4987657;28;20180;-66
2022/07/26 07:37:06;;;;;;;5.73;2.53;;;26.50;99.60;;;;;;4988957;28;20438;-67
2022/07/26 07:39:32;;;;;;;4.97;2.83;;;26.20;98.90;;;;;;4988586;28;20606;-66
2022/07/26 07:41:58;;;;;;;4.90;2.50;;;26.00;98.70;;;;;;4989194;28;20203;-68
2022/07/26 07:44:23;;;;;;;6.00;2.63;;;25.70;98.10;;;;;;4988624;28;20165;-68
2022/07/26 07:46:49;;;;;;;2.20;2.00;;;25.50;98.20;;;;;;4988464;28;20707;-67
2022/07/26 07:49:15;;;;;;;3.00;2.63;;;25.40;97.80;;;;;;4987253;28;20786;-66
2022/07/26 07:58:25;;;;;;;9.70;2.60;;;25.20;96.10;;;;;;4987940;28;20407;-67
2022/07/26 08:00:51;;;;;;;3.73;2.20;;;25.30;96.50;;;;;;4988600;28;20912;-67
2022/07/26 08:03:17;;;;;;;8.27;2.90;;;25.20;95.50;;;;;;4986295;28;20280;-66
2022/07/26 08:05:43;;;;;;;10.13;2.90;;;25.40;95.40;;;;;;4988204;28;20172;-67
2022/07/26 08:08:08;;;;;;;8.77;2.77;;;25.70;95.30;;;;;;4987763;28;20424;-67
2022/07/26 08:10:34;;;;;;;16.30;3.90;;;25.90;95.20;;;;;;4988249;28;20188;-67
2022/07/26 08:13:00;;;;;;;14.80;3.60;;;26.10;94.50;;;;;;4988015;28;20212;-67
2022/07/26 08:15:26;;;;;;;9.83;3.67;;;26.30;94.40;;;;;;4988384;28;20279;-67
2022/07/26 08:17:52;;;;;;;14.90;3.87;;;26.20;93.60;;;;;;4986787;28;20180;-68
2022/07/26 08:20:18;;;;;;;17.77;3.40;;;26.20;93.50;;;;;;4987858;28;20495;-67
2022/07/26 08:22:44;;;;;;;17.70;4.43;;;26.00;92.90;;;;;;4990235;28;20445;-68
2022/07/26 08:25:10;;;;;;;13.40;4.60;;;26.00;92.50;;;;;;4977806;28;20457;-68
2022/07/26 08:27:36;;;;;;;17.67;4.43;;;26.30;92.70;;;;;;4977155;28;20224;-67
2022/07/26 08:30:02;;;;;;;5.93;3.30;;;26.70;91.60;;;;;;4979020;28;20168;-67
2022/07/26 08:32:28;;;;;;;11.57;3.10;;;26.70;90.40;;;;;;4976448;28;20189;-68
2022/07/26 08:34:54;;;;;;;32.30;5.80;;;26.80;89.80;;;;;;4976814;28;20941;-67
2022/07/26 08:37:19;;;;;;;19.77;5.00;;;27.40;90.00;;;;;;4971802;28;20216;-68
2022/07/26 08:39:47;;;;;;;41.63;5.97;;;27.80;86.90;;;;;;4968255;28;20191;-68
2022/07/26 08:42:18;;;;;;;5.53;2.77;;;28.20;83.40;;;;;;4968868;28;20192;-68
2022/07/26 08:44:45;;;;;;;13.43;3.53;;;28.50;79.50;;;;;;4978872;28;20489;-68
2022/07/26 08:47:17;;;;;;;12.70;4.00;;;28.50;75.00;;;;;;4987915;28;20470;-67
2022/07/26 08:49:43;;;;;;;7.23;2.80;;;28.60;72.50;;;;;;4987533;28;20415;-67
2022/07/26 08:52:11;;;;;;;8.93;3.30;;;28.30;66.20;;;;;;4988997;28;20416;-67
2022/07/26 08:54:42;;;;;;;8.67;3.23;;;28.20;61.70;;;;;;4988102;28;20861;-68
2022/07/26 08:57:08;;;;;;;20.73;3.80;;;27.90;76.70;;;;;;4987597;28;20415;-68
2022/07/26 08:59:34;;;;;;;20.27;5.00;;;27.60;57.90;;;;;;4988459;28;20468;-68
2022/07/26 09:02:03;;;;;;;10.80;3.20;;;27.70;57.20;;;;;;4988365;28;20173;-68
2022/07/26 09:04:36;;;;;;;22.67;4.90;;;27.70;56.10;;;;;;4987658;28;20252;-69
2022/07/26 09:07:06;;;;;;;26.53;4.80;;;27.50;53.50;;;;;;4988857;28;20395;-68
2022/07/26 09:09:34;;;;;;;30.37;5.10;;;27.60;53.40;;;;;;4988359;28;20411;-68
2022/07/26 09:12:14;;;;;;;15.70;3.20;;;28.00;53.20;;;;;;4988887;28;20490;-69
2022/07/26 09:14:39;;;;;;;17.30;3.80;;;28.40;51.90;;;;;;4989884;28;20402;-68
2022/07/26 09:17:05;;;;;;;22.63;4.70;;;28.70;50.30;;;;;;4991663;28;20754;-68
2022/07/26 09:23:12;;;;;;;12.00;3.93;;;28.10;46.10;;;;;;5000990;28;20194;-68
2022/07/26 09:25:39;;;;;;;10.20;3.47;;;28.10;45.60;;;;;;5012379;28;20414;-68
2022/07/26 09:28:28;;;;;;;9.07;3.40;;;28.00;42.80;;;;;;5010067;28;20411;-68
2022/07/26 09:31:02;;;;;;;21.97;4.27;;;27.90;41.90;;;;;;5010794;28;20395;-68
2022/07/26 09:33:50;;;;;;;12.53;3.90;;;27.60;41.50;;;;;;4990121;28;20438;-69
2022/07/26 09:36:17;;;;;;;13.90;3.80;;;27.60;42.30;;;;;;4991943;28;20611;-68
2022/07/26 09:38:49;;;;;;;7.17;2.60;;;27.60;41.80;;;;;;4991457;28;20407;-68
2022/07/26 09:41:31;;;;;;;11.03;3.57;;;27.80;42.40;;;;;;4991601;28;20861;-68
2022/07/26 09:44:03;;;;;;;28.33;5.27;;;28.00;41.90;;;;;;4991219;28;20463;-68
2022/07/26 09:46:31;;;;;;;10.60;3.23;;;28.10;39.10;;;;;;4991867;28;20501;-68
2022/07/26 09:49:15;;;;;;;19.93;4.27;;;28.30;38.20;;;;;;4990583;28;20438;-69
2022/07/26 09:51:44;;;;;;;11.50;2.90;;;28.80;35.20;;;;;;4993124;28;20415;-69
2022/07/26 09:54:15;;;;;;;5.77;2.40;;;28.80;30.90;;;;;;4982720;28;20825;-68
2022/07/26 09:56:51;;;;;;;20.40;4.10;;;28.90;28.40;;;;;;4991061;28;20470;-69
2022/07/26 09:59:20;;;;;;;29.90;6.13;;;29.00;25.80;;;;;;4991812;28;20946;-69
2022/07/26 10:01:48;;;;;;;16.07;4.43;;;29.00;25.30;;;;;;4990149;28;20954;-69
2022/07/26 10:04:15;;;;;;;8.77;2.60;;;29.30;24.20;;;;;;4991621;28;20581;-69
2022/07/26 10:06:41;;;;;;;18.57;4.43;;;28.90;22.90;;;;;;4980979;28;20408;-70
2022/07/26 10:09:08;;;;;;;17.70;3.60;;;28.80;21.80;;;;;;4972059;28;20423;-69
2022/07/26 10:11:41;;;;;;;24.53;4.70;;;28.80;21.00;;;;;;4988530;28;20458;-69
2022/07/26 10:14:32;;;;;;;9.50;3.80;;;28.60;20.00;;;;;;5009967;23;20498;-71
2022/07/26 10:16:59;;;;;;;7.83;2.83;;;28.50;19.00;;;;;;5009219;28;20466;-72
2022/07/26 10:19:40;;;;;;;6.30;2.80;;;28.20;18.10;;;;;;5008027;28;20926;-71
2022/07/26 10:22:25;;;;;;;9.20;3.43;;;28.20;17.50;;;;;;5013478;28;21314;-72
2022/07/26 10:24:52;;;;;;;6.90;2.73;;;28.10;16.30;;;;;;5029323;28;20452;-72
2022/07/26 10:27:38;;;;;;;31.27;4.90;;;28.00;15.20;;;;;;5028871;28;20898;-71
2022/07/26 10:30:21;;;;;;;4.83;3.07;;;28.20;15.10;;;;;;5029482;28;20410;-72
2022/07/26 10:32:52;;;;;;;11.23;3.53;;;28.50;14.40;;;;;;5013439;28;20486;-74
2022/07/26 10:35:42;;;;;;;3.97;2.43;;;28.40;13.40;;;;;;5009374;28;20458;-73
2022/07/26 10:38:14;;;;;;;17.60;4.13;;;28.40;12.30;;;;;;5008873;28;20402;-73
2022/07/26 10:41:01;;;;;;;9.40;2.60;;;28.30;11.20;;;;;;5010082;28;20450;-73
2022/07/26 10:43:28;;;;;;;10.97;3.20;;;28.30;10.60;;;;;;5009260;28;20956;-74
2022/07/26 10:46:15;;;;;;;9.37;3.43;;;28.30;10.50;;;;;;4990098;28;20896;-74
2022/07/26 10:49:05;;;;;;;8.57;3.13;;;28.30;9.90;;;;;;4988012;28;20419;-74
2022/07/26 10:51:38;;;;;;;9.53;3.67;;;28.40;9.60;;;;;;4991262;28;20484;-74
2022/07/26 10:54:06;;;;;;;7.30;2.97;;;28.40;9.00;;;;;;4989413;28;20490;-74
2022/07/26 10:56:32;;;;;;;19.67;4.77;;;28.70;9.10;;;;;;4989517;28;20459;-74
2022/07/26 10:58:58;;;;;;;15.87;3.53;;;28.80;6.80;;;;;;4988802;28;20495;-75
2022/07/26 11:01:35;;;;;;;8.03;2.73;;;28.90;5.70;;;;;;4989824;28;20288;-74
2022/07/26 11:04:01;;;;;;;17.03;3.13;;;29.00;4.40;;;;;;4988076;28;20459;-74
2022/07/26 11:06:31;;;;;;;10.20;2.70;;;28.90;3.10;;;;;;4990105;28;20462;-74
2022/07/26 11:08:57;;;;;;;6.70;2.33;;;28.80;2.20;;;;;;4988643;28;20236;-73
2022/07/26 11:11:31;;;;;;;5.10;2.30;;;28.80;1.00;;;;;;5005670;28;20411;-72
2022/07/26 11:14:08;;;;;;;6.97;2.63;;;28.70;1.00;;;;;;5009040;28;20525;-72
2022/07/26 11:16:41;;;;;;;14.77;3.20;;;28.90;1.00;;;;;;5008997;28;20450;-71
2022/07/26 11:19:16;;;;;;;11.27;3.40;;;29.00;1.00;;;;;;5006710;28;20423;-71
2022/07/26 11:21:44;;;;;;;9.30;3.30;;;29.20;1.00;;;;;;5008916;28;20428;-71
2022/07/26 11:24:10;;;;;;;8.03;2.63;;;29.40;1.00;;;;;;4988578;28;20453;-70
2022/07/26 11:26:45;;;;;;;4.10;2.10;;;29.20;1.00;;;;;;4989808;28;20416;-74
2022/07/26 11:29:12;;;;;;;11.60;3.40;;;29.10;1.00;;;;;;4988719;28;20190;-74
2022/07/26 11:31:46;;;;;;;7.40;2.37;;;29.30;1.00;;;;;;4995268;28;20875;-72
2022/07/26 11:34:21;;;;;;;18.53;4.33;;;29.50;1.00;;;;;;5007134;28;20454;-71
2022/07/26 11:36:49;;;;;;;15.43;4.00;;;29.60;1.00;;;;;;5008348;28;20484;-72
2022/07/26 11:39:19;;;;;;;2.10;1.70;;;29.40;1.00;;;;;;5008202;28;20760;-72
2022/07/26 11:41:46;;;;;;;6.73;2.23;;;28.80;1.00;;;;;;5008956;28;20399;-72
2022/07/26 11:44:19;;;;;;;9.70;2.73;;;28.90;1.00;;;;;;5002503;28;20519;-73
2022/07/26 11:46:48;;;;;;;5.93;2.27;;;28.90;1.00;;;;;;4989265;28;20857;-72
2022/07/26 11:49:19;;;;;;;13.80;3.70;;;29.00;1.00;;;;;;4998202;28;20895;-72
2022/07/26 11:51:48;;;;;;;9.50;2.57;;;29.20;1.00;;;;;;5023827;28;20935;-72
2022/07/26 11:54:14;;;;;;;7.60;2.13;;;29.20;1.00;;;;;;5008024;28;20441;-72
2022/07/26 11:57:08;;;;;;;5.87;2.70;;;28.90;1.00;;;;;;5008739;28;20474;-72
2022/07/26 11:59:36;;;;;;;7.50;2.60;;;28.90;1.00;;;;;;5007248;28;20454;-72
2022/07/26 12:02:04;;;;;;;3.80;2.40;;;29.10;1.00;;;;;;5008305;28;20490;-72
2022/07/26 12:04:36;;;;;;;7.90;2.40;;;29.10;1.00;;;;;;5007046;28;20537;-72
2022/07/26 12:07:20;;;;;;;13.20;3.00;;;28.90;1.00;;;;;;5008278;28;20494;-72
2022/07/26 12:09:49;;;;;;;7.60;2.00;;;29.10;1.00;;;;;;5007991;28;21270;-71
2022/07/26 12:12:34;;;;;;;5.63;2.20;;;29.00;1.00;;;;;;5008245;28;20417;-71
2022/07/26 12:15:00;;;;;;;19.20;3.13;;;29.20;1.00;;;;;;5008021;28;20473;-71
2022/07/26 12:17:58;;;;;;;15.27;2.43;;;29.20;1.00;;;;;;5007621;28;20921;-73
2022/07/26 12:20:26;;;;;;;11.27;2.23;;;29.20;1.00;;;;;;5008264;28;20398;-74
2022/07/26 12:22:59;;;;;;;6.63;1.80;;;29.10;1.00;;;;;;5008560;28;20493;-73
2022/07/26 12:25:27;;;;;;;23.83;3.70;;;29.00;1.00;;;;;;5009443;28;20451;-74
2022/07/26 12:27:53;;;;;;;14.40;2.43;;;29.00;1.00;;;;;;5011266;28;20743;-74
2022/07/26 12:30:19;;;;;;;7.50;2.70;;;29.00;1.00;;;;;;5011412;28;20461;-74
2022/07/26 12:32:50;;;;;;;9.30;2.20;;;29.00;1.00;;;;;;5011742;28;20407;-73
2022/07/26 12:35:26;;;;;;;6.80;1.90;;;29.00;1.00;;;;;;4999959;28;20538;-66
2022/07/26 12:37:52;;;;;;;11.30;2.73;;;29.20;1.00;;;;;;4996358;28;20585;-69
2022/07/26 12:40:22;;;;;;;8.43;2.90;;;29.40;1.00;;;;;;4997290;28;20509;-68
2022/07/26 12:42:58;;;;;;;10.00;2.50;;;29.20;1.00;;;;;;4996909;28;20485;-67
2022/07/26 12:45:27;;;;;;;26.43;3.93;;;29.10;1.00;;;;;;4997733;28;20513;-66
2022/07/26 12:47:54;;;;;;;11.50;2.67;;;29.10;1.00;;;;;;4996487;28;21249;-69
2022/07/26 12:50:25;;;;;;;7.47;2.00;;;29.10;1.00;;;;;;5001093;28;20860;-68
2022/07/26 12:52:57;;;;;;;12.80;2.40;;;29.10;1.00;;;;;;5000667;28;20407;-69
2022/07/26 12:55:23;;;;;;;5.03;2.43;;;29.10;1.00;;;;;;4998473;28;20557;-68
2022/07/26 12:57:49;;;;;;;13.00;2.40;;;29.10;1.00;;;;;;5003551;28;20494;-69
2022/07/26 13:00:17;;;;;;;8.90;2.97;;;29.00;1.00;;;;;;5011401;28;20525;-68
2022/07/26 13:02:44;;;;;;;9.13;2.73;;;29.00;1.00;;;;;;5002096;28;20165;-69